createdAt,value
2022-07-28T00:10:57.809Z,1.64
2022-07-28T00:25:49.204Z,2.70
2022-07-28T00:40:58.685Z,4.34
2022-07-28T00:56:03.491Z,2.76
2022-07-28T01:10:47.390Z,2.95
2022-07-28T01:26:12.813Z,1.89
2022-07-28T01:41:10.424Z,1.84
2022-07-28T01:56:02.031Z,3.22
2022-07-28T02:11:11.954Z,3.74
2022-07-28T02:26:09.132Z,2.27
2022-07-28T02:40:59.915Z,2.32
2022-07-28T02:55:52.003Z,2.42
2022-07-28T03:11:01.926Z,1.97
2022-07-28T03:25:46.373Z,2.21
2022-07-28T03:40:39.462Z,2.22
2022-07-28T03:55:40.060Z,2.69
2022-07-28T04:10:33.166Z,3.93
2022-07-28T04:25:23.602Z,5.03
2022-07-28T04:40:14.047Z,1.96
2022-07-28T04:55:05.516Z,4.01
2022-07-28T05:09:56.670Z,3.13
2022-07-28T05:24:48.769Z,3.43
2022-07-28T05:39:40.324Z,4.78
2022-07-28T05:54:31.811Z,4.02
2022-07-28T06:09:24.231Z,3.22
2022-07-28T06:24:16.683Z,4.03
2022-07-28T06:39:08.685Z,3.53
2022-07-28T06:54:00.432Z,6.68
2022-07-28T07:08:52.340Z,4.15
2022-07-28T07:23:44.479Z,4.69
2022-07-28T07:38:36.468Z,5.57
2022-07-28T07:53:29.744Z,5.20
2022-07-28T08:08:21.778Z,6.81
2022-07-28T08:23:14.409Z,8.16
2022-07-28T08:38:07.189Z,5.34
2022-07-28T08:53:00.648Z,4.89
2022-07-28T09:07:55.041Z,4.60
2022-07-28T09:23:01.332Z,4.20
2022-07-28T09:37:58.677Z,5.14
2022-07-28T09:52:51.500Z,4.55
2022-07-28T10:07:50.526Z,4.53
2022-07-28T10:22:47.706Z,7.09
2022-07-28T10:37:52.394Z,6.15
2022-07-28T10:52:53.608Z,6.46
2022-07-28T11:07:42.653Z,6.99
2022-07-28T11:22:36.263Z,6.74
2022-07-28T11:37:29.355Z,9.13
2022-07-28T11:52:22.605Z,9.14
2022-07-28T12:07:15.373Z,7.94
2022-07-28T12:22:14.942Z,6.86
2022-07-28T12:37:05.487Z,7.11
2022-07-28T12:51:58.556Z,6.34
2022-07-28T13:06:57.375Z,5.40
2022-07-28T13:21:56.642Z,5.44
2022-07-28T13:36:45.123Z,6.03
2022-07-28T13:51:38.304Z,5.53
2022-07-28T14:06:35.343Z,4.38
2022-07-28T14:21:28.587Z,5.73
2022-07-28T14:36:20.857Z,6.16
2022-07-28T14:51:13.811Z,6.69
2022-07-28T15:06:09.103Z,4.40
2022-07-28T15:21:04.687Z,7.00
2022-07-28T15:36:00.221Z,4.23
2022-07-28T15:50:55.501Z,5.86
2022-07-28T16:36:08.243Z,6.22
2022-07-28T16:51:00.341Z,5.30
2022-07-28T17:05:53.425Z,4.94
2022-07-28T17:20:48.384Z,5.24
2022-07-28T17:35:39.933Z,5.68
2022-07-28T17:50:31.707Z,4.48
2022-07-28T18:20:24.257Z,8.64
2022-07-28T18:50:14.229Z,5.66
2022-07-28T19:05:01.224Z,4.54
2022-07-28T19:34:54.129Z,6.09
2022-07-28T19:49:44.948Z,5.62
2022-07-28T20:04:36.324Z,5.28
2022-07-28T20:19:28.327Z,6.01
2022-07-28T21:18:53.062Z,5.82
2022-07-28T21:33:44.771Z,4.26
2022-07-28T21:48:36.408Z,5.74
2022-07-28T22:03:31.263Z,6.94
2022-07-28T22:18:22.337Z,4.24
2022-07-28T22:33:12.463Z,5.15
2022-07-28T22:48:05.962Z,4.36
2022-07-28T23:02:57.419Z,5.05
2022-07-28T23:17:47.694Z,4.65
2022-07-28T23:32:38.605Z,7.10
2022-07-28T23:47:30.042Z,4.90
